Aérodrome :
LOGIN :

S'inscrire | Disclaimer

   EN    FR    IT 

 










Légende :    VFR   VFR Marginal   IFR   IFR Intensif   IFR Très Intensif
Visi : 
Plafond : 
>= 8 km
>= 3000ft
5 à 8 km
1000 à 3000 ft
1500m à 5 km
500 à 1000 ft
800 à 1500m
200 à 500 ft
< 800m
< 200 ft
Symboles :   Orages  Brouillard  Fortes neiges  Fortes précipitations  Vent > 20 kt
SIGMETs :   Divers  Orages  Givrage  Turbulence  Onde Orograph.  Cendres Volcan.






- Altitude de l'aérodrome : 14 ft
- Code IATA : BRE


EDDW - Bremen Neuenland

DERNIER METAR :
  • 220120Z 18004KT 9999 BKN039 11/09 Q1021

METARs EXPIRÉS :
  • 220050Z 17004KT 9999 BKN039 11/09 Q1021
  • 220020Z 18005KT 9999 BKN038 11/09 Q1021
  • 212350Z 18006KT 9999 BKN035 11/09 Q1021
  • 212320Z 17005KT 9999 BKN038 10/09 Q1021
  • 212250Z 17004KT 9999 BKN039 11/09 Q1021

TAF TAF EDDW
Valide du 22 à 00h jusqu'au 23 à 00h UTC


212300Z 2200/2224 19005KT 9999 BKN040
BECMG 2206/2209 24010KT
BECMG 2215/2218 VRB03KT
BECMG 2220/2222 2500 BCFG
PROB30
TEMPO 2222/2224 0400 FG OVC001



MET'MAP, la Météo Aéronautique d'un coup d'oeil ! - Copyright ORBIFLY Décembre 2007 - Disclaimer

ORBIFLY MET'MAP TEAM :

Programmation & Développement : Alexandra Zaïnal
Conception & Développement : Baudouin d'Aumeries
Co-Programmation & Développement : Marc-Olivier Méhu
Soutien technique & logistique : Manuel Goepfert

Contact : metmap@orbifly.com




SOURCES & CREDITS :

   NOAA